Time;durP1;ratioP1;P1;durP2;ratioP2;P2;SDS_P1;SDS_P2;PMS_P1;PMS_P2;Temp;Humidity;BMP_temperature;BMP_pressure;BME280_temperature;BME280_humidity;BME280_pressure;Samples;Min_cycle;Max_cycle;Signal;HPM_P1;HPM_P2
2024/02/17 00:03:12;;;;;;;10.15;4.65;;;;;;;5.46;91.71;99184.66;4985795;28;20666;-93
2024/02/17 00:08:59;;;;;;;10.13;5.15;;;;;;;6.23;91.88;99345.72;4985942;28;20282;-94
2024/02/17 00:22:21;;;;;;;10.32;5.90;;;;;;;6.20;89.37;99344.81;4967364;28;20031;-95
2024/02/17 00:25:07;;;;;;;12.18;5.72;;;;;;;6.54;88.61;99383.53;4975672;28;20538;-94
2024/02/17 00:27:46;;;;;;;10.70;6.13;;;;;;;5.40;89.14;99211.06;4975612;28;20043;-95
2024/02/17 00:30:20;;;;;;;9.50;5.68;;;;;;;5.39;88.88;99187.31;4987082;28;20046;-96
2024/02/17 00:32:53;;;;;;;11.20;5.00;;;;;;;6.60;89.35;99395.00;4969248;28;20047;-96
2024/02/17 00:35:43;;;;;;;11.48;5.50;;;;;;;5.55;91.87;99239.19;4966905;28;20137;-95
2024/02/17 00:38:22;;;;;;;9.73;4.38;;;;;;;5.63;91.91;99249.75;4983155;28;20078;-95
2024/02/17 00:41:06;;;;;;;9.80;4.82;;;;;;;5.85;92.97;99304.28;4982532;28;20385;-94
2024/02/17 00:43:58;;;;;;;16.23;5.45;;;;;;;5.27;91.97;99180.25;5003596;28;20073;-93
2024/02/17 00:46:38;;;;;;;8.75;5.07;;;;;;;5.50;91.96;99230.41;5015527;28;20596;-95
2024/02/17 00:49:24;;;;;;;11.75;5.15;;;;;;;5.28;91.97;99185.53;5002166;28;20050;-95
2024/02/17 00:52:16;;;;;;;10.57;5.07;;;;;;;5.22;92.73;99189.94;4997031;28;20088;-95
2024/02/17 00:55:03;;;;;;;12.55;5.72;;;;;;;5.38;94.14;99225.09;5039747;28;20094;-94
2024/02/17 00:57:34;;;;;;;13.55;6.15;;;;;;;6.22;93.45;99351.84;5055478;28;20053;-95
2024/02/17 01:00:14;;;;;;;12.15;5.95;;;;;;;5.22;93.49;99208.41;5063419;28;20114;-95
2024/02/17 01:02:55;;;;;;;11.30;6.00;;;;;;;6.26;95.19;99393.22;5062030;28;20083;-95
2024/02/17 01:05:42;;;;;;;9.52;5.40;;;;;;;6.25;95.23;99394.13;5065174;28;20577;-96
2024/02/17 01:08:35;;;;;;;13.63;6.88;;;;;;;5.05;96.58;99226.81;5062546;28;20049;-94
2024/02/17 01:11:16;;;;;;;15.68;7.22;;;;;;;4.76;98.58;99196.00;5068225;28;20044;-95
2024/02/17 01:13:52;;;;;;;13.52;7.15;;;;;;;5.01;98.14;99225.03;5067170;28;20048;-96
2024/02/17 01:16:30;;;;;;;12.80;6.82;;;;;;;5.30;99.43;99284.00;5056882;28;20048;-94
2024/02/17 01:19:13;;;;;;;17.45;8.45;;;;;;;4.87;99.92;99217.09;5057404;28;20109;-94
2024/02/17 01:21:51;;;;;;;12.52;6.85;;;;;;;5.49;100.00;99327.13;5060636;28;20049;-93
2024/02/17 01:24:21;;;;;;;12.05;6.60;;;;;;;5.05;100.00;99250.53;5059535;28;20033;-95
2024/02/17 01:27:09;;;;;;;14.52;7.63;;;;;;;5.39;100.00;99317.41;5058877;28;20060;-95
2024/02/17 01:29:47;;;;;;;14.80;7.13;;;;;;;5.93;100.00;99402.84;5048321;28;20473;-96
2024/02/17 01:32:15;;;;;;;13.68;6.90;;;;;;;5.87;100.00;99402.84;5053405;28;20052;-95
2024/02/17 01:34:55;;;;;;;18.23;8.63;;;;;;;5.10;100.00;99285.72;5044225;28;20585;-95
2024/02/17 01:37:40;;;;;;;14.98;7.18;;;;;;;4.79;100.00;99232.00;5049045;28;20041;-94
2024/02/17 01:40:20;;;;;;;18.73;9.00;;;;;;;5.50;100.00;99372.84;5075108;28;20049;-95
2024/02/17 01:43:03;;;;;;;17.35;8.73;;;;;;;5.73;100.00;99399.31;5064986;28;20041;-94
2024/02/17 01:45:44;;;;;;;16.80;8.40;;;;;;;4.92;100.00;99299.69;5066085;28;20049;-95
2024/02/17 01:48:20;;;;;;;20.55;9.68;;;;;;;5.28;100.00;99364.84;5055860;28;20052;-96
2024/02/17 01:51:11;;;;;;;;;;;;;;;;;;;;;
2024/02/17 01:53:52;;;;;;;15.80;8.20;;;;;;;5.20;100.00;99406.13;5066306;28;20032;-95
2024/02/17 01:56:33;;;;;;;18.30;8.68;;;;;;;4.24;100.00;99230.88;5064376;28;20132;-96
2024/02/17 01:59:15;;;;;;;13.23;8.05;;;;;;;4.20;100.00;99231.72;5047330;28;20052;-95
2024/02/17 02:02:17;;;;;;;17.85;9.80;;;;;;;4.57;100.00;99296.88;5061574;28;20056;-95
2024/02/17 02:09:23;;;;;;;15.02;7.88;;;;;;;5.27;100.00;99364.84;4947771;29;20055;-96
2024/02/17 02:11:44;;;;;;;12.88;6.50;;;;;;;4.15;100.00;99222.94;4920759;29;20078;-94
2024/02/17 02:14:19;;;;;;;12.55;6.07;;;;;;;5.10;100.00;99362.16;4933442;28;20063;-96
2024/02/17 02:16:57;;;;;;;13.05;6.90;;;;;;;4.10;100.00;99190.44;4949271;28;20051;-95
2024/02/17 02:19:27;;;;;;;13.55;5.80;;;;;;;5.57;98.61;99393.09;4968230;28;20106;-95
2024/02/17 02:21:59;;;;;;;12.95;5.18;;;;;;;4.82;95.04;99229.41;4977966;28;20047;-95
2024/02/17 02:24:38;;;;;;;11.80;6.43;;;;;;;5.79;90.26;99367.66;4957327;28;20043;-95
2024/02/17 02:27:06;;;;;;;10.00;5.35;;;;;;;5.80;88.64;99358.84;4961757;28;20050;-95
2024/02/17 02:29:32;;;;;;;14.15;5.63;;;;;;;6.06;88.21;99402.91;4955773;29;20047;-93
2024/02/17 02:31:59;;;;;;;13.85;5.80;;;;;;;4.78;88.12;99214.44;4951603;28;20049;-95
2024/02/17 02:34:25;;;;;;;15.20;6.13;;;;;;;6.14;87.09;99407.31;4966122;28;20097;-95
2024/02/17 02:36:51;;;;;;;9.82;5.63;;;;;;;5.22;87.17;99246.19;4967460;28;20050;-96
2024/02/17 02:39:18;;;;;;;10.88;5.60;;;;;;;5.34;88.29;99261.16;5068479;28;20059;-95
2024/02/17 02:41:44;;;;;;;10.50;5.43;;;;;;;5.79;87.76;99325.44;5056815;28;20049;-95
2024/02/17 02:44:13;;;;;;;11.02;5.30;;;;;;;5.23;91.02;99228.63;5051530;28;20044;-94
2024/02/17 02:46:39;;;;;;;13.93;5.53;;;;;;;6.17;91.52;99382.69;5062932;28;20413;-95
2024/02/17 02:49:06;;;;;;;9.20;4.95;;;;;;;5.87;93.30;99367.66;5064087;28;20044;-95
2024/02/17 02:51:32;;;;;;;10.90;5.18;;;;;;;5.83;94.28;99364.13;5052995;28;20045;-96
2024/02/17 02:54:21;;;;;;;10.80;4.85;;;;;;;4.71;96.43;99209.16;5071659;28;20398;-95
2024/02/17 02:57:03;;;;;;;10.50;4.80;;;;;;;4.79;92.77;99209.16;5058055;28;20037;-95
2024/02/17 02:59:31;;;;;;;9.15;4.80;;;;;;;5.36;89.78;99280.50;5052125;28;20098;-95
2024/02/17 03:01:57;;;;;;;11.40;5.72;;;;;;;5.48;87.90;99283.16;5054644;28;20071;-96
2024/02/17 03:04:24;;;;;;;11.82;5.75;;;;;;;5.91;86.39;99351.81;5056961;28;20048;-93
2024/02/17 03:06:50;;;;;;;11.20;5.07;;;;;;;5.26;85.89;99220.72;5055916;28;20055;-95
2024/02/17 03:09:19;;;;;;;10.15;5.88;;;;;;;5.26;84.91;99216.31;5057929;28;20044;-96
2024/02/17 03:11:48;;;;;;;10.85;6.22;;;;;;;5.20;85.36;99207.50;5055856;28;20044;-95
2024/02/17 03:14:15;;;;;;;11.35;5.57;;;;;;;5.23;87.02;99213.69;5050646;28;20040;-95
2024/02/17 03:16:43;;;;;;;12.18;5.25;;;;;;;5.93;89.75;99344.78;5054535;28;20438;-94
2024/02/17 03:19:09;;;;;;;10.45;5.57;;;;;;;6.04;91.64;99399.41;5064071;28;20051;-93
2024/02/17 03:21:41;;;;;;;11.85;6.00;;;;;;;4.70;92.02;99173.13;5063253;28;20128;-94
2024/02/17 03:24:10;;;;;;;11.88;5.43;;;;;;;5.05;93.34;99251.44;5059401;28;20579;-96
2024/02/17 03:26:42;;;;;;;9.20;5.68;;;;;;;5.78;94.42;99392.28;5065650;28;20044;-96
2024/02/17 03:29:17;;;;;;;9.75;5.20;;;;;;;5.10;94.91;99280.44;5062607;28;20496;-96
2024/02/17 03:31:48;;;;;;;9.55;5.00;;;;;;;5.39;96.89;99359.63;5053686;28;20044;-96
2024/02/17 03:34:15;;;;;;;10.30;5.38;;;;;;;5.49;97.70;99384.28;5059650;28;20037;-96
2024/02/17 03:36:41;;;;;;;13.88;5.18;;;;;;;4.35;98.02;99203.72;5052516;28;20470;-95
2024/02/17 03:39:09;;;;;;;9.45;4.97;;;;;;;5.50;99.73;99404.50;5059524;28;20049;-94
2024/02/17 03:41:35;;;;;;;11.30;5.80;;;;;;;4.37;99.90;99218.66;5056646;28;20075;-96
2024/02/17 03:44:10;;;;;;;14.48;5.30;;;;;;;4.23;100.00;99210.69;5047515;28;20068;-96
2024/02/17 03:46:39;;;;;;;12.65;5.20;;;;;;;5.42;99.97;99404.50;5049177;28;20045;-95
2024/02/17 03:49:07;;;;;;;12.70;5.57;;;;;;;4.68;100.00;99289.91;5052333;28;20049;-96
2024/02/17 03:51:39;;;;;;;12.15;6.15;;;;;;;4.79;100.00;99303.13;5048487;28;20060;-95
2024/02/17 03:54:08;;;;;;;9.77;5.57;;;;;;;4.31;100.00;99210.72;5044642;28;20058;-96
2024/02/17 03:56:34;;;;;;;8.00;4.32;;;;;;;5.23;100.00;99371.00;5045720;28;20044;-96
2024/02/17 03:59:17;;;;;;;11.55;4.97;;;;;;;4.23;100.00;99212.44;5068146;28;20053;-95
2024/02/17 04:01:43;;;;;;;9.70;5.45;;;;;;;4.36;99.50;99218.63;5051282;28;20573;-95
2024/02/17 04:04:14;;;;;;;10.02;4.88;;;;;;;5.61;98.88;99430.91;5054494;28;20105;-95
2024/02/17 04:06:41;;;;;;;11.07;5.03;;;;;;;5.38;98.97;99388.63;5070254;28;20122;-94
2024/02/17 04:09:07;;;;;;;10.18;5.15;;;;;;;5.51;99.46;99425.63;5035787;28;20049;-95
2024/02/17 04:11:33;;;;;;;10.65;5.32;;;;;;;4.31;100.00;99229.16;5048834;28;20068;-95
2024/02/17 04:14:00;;;;;;;11.38;5.75;;;;;;;4.22;100.00;99224.72;5049328;28;20398;-95
2024/02/17 04:16:40;;;;;;;10.80;5.68;;;;;;;4.33;100.00;99249.34;5050378;28;20417;-95
2024/02/17 04:19:31;;;;;;;10.77;5.93;;;;;;;4.84;100.00;99325.16;5067571;28;20497;-94
2024/02/17 04:22:24;;;;;;;9.07;5.10;;;;;;;5.29;100.00;99402.66;5066987;28;20040;-95
2024/02/17 04:24:50;;;;;;;11.00;5.65;;;;;;;5.56;100.00;99436.19;5057141;28;20047;-95
2024/02/17 04:27:21;;;;;;;13.55;5.95;;;;;;;5.33;100.00;99397.41;5050960;28;20072;-95
2024/02/17 04:29:48;;;;;;;14.45;6.10;;;;;;;5.30;100.00;99402.66;5056463;28;20451;-94
2024/02/17 04:32:14;;;;;;;9.00;5.30;;;;;;;4.60;100.00;99263.56;5067863;28;20037;-95
2024/02/17 04:34:48;;;;;;;14.45;6.40;;;;;;;4.54;100.00;99268.78;5082333;28;20049;-94
2024/02/17 04:37:24;;;;;;;11.00;6.78;;;;;;;5.25;100.00;99406.19;5064647;28;20067;-95
2024/02/17 04:40:21;;;;;;;;;;;;;;;;;;;;;
2024/02/17 04:42:56;;;;;;;13.80;7.75;;;;;;;5.71;100.00;99453.84;5065154;28;20072;-94
2024/02/17 04:45:40;;;;;;;14.48;7.20;;;;;;;4.74;100.00;99275.00;5049812;28;20456;-95
2024/02/17 04:48:11;;;;;;;19.30;9.48;;;;;;;5.70;100.00;99467.88;5049994;28;20041;-94
2024/02/17 04:50:40;;;;;;;21.80;9.73;;;;;;;5.45;100.00;99428.22;5055914;28;20044;-94
2024/02/17 04:53:06;;;;;;;19.30;7.90;;;;;;;4.70;100.00;99289.03;5056398;28;20071;-94
2024/02/17 04:55:35;;;;;;;18.15;8.07;;;;;;;4.73;100.00;99291.72;5061237;28;20413;-95
2024/02/17 04:58:02;;;;;;;16.05;8.10;;;;;;;4.87;100.00;99296.16;5063776;28;20068;-93
2024/02/17 05:00:31;;;;;;;17.70;8.77;;;;;;;5.91;100.00;99467.09;5061988;28;20505;-95
2024/02/17 05:02:57;;;;;;;16.92;7.85;;;;;;;5.83;100.00;99471.44;5049159;28;20044;-95
2024/02/17 05:05:23;;;;;;;12.60;6.55;;;;;;;5.81;100.00;99478.47;5055288;28;20045;-95
2024/02/17 05:07:51;;;;;;;18.33;7.65;;;;;;;5.87;100.00;99468.81;5049988;28;20052;-95
2024/02/17 05:10:19;;;;;;;13.45;6.05;;;;;;;5.90;100.00;99473.25;5062129;28;20037;-94
2024/02/17 05:12:50;;;;;;;14.13;6.43;;;;;;;5.70;100.00;99436.22;5060077;28;20079;-95
2024/02/17 05:15:26;;;;;;;12.30;7.03;;;;;;;5.92;100.00;99471.47;5063416;28;20045;-96
2024/02/17 05:17:55;;;;;;;12.00;6.70;;;;;;;4.79;100.00;99279.44;5065510;28;20093;-94
2024/02/17 05:20:22;;;;;;;12.00;6.15;;;;;;;5.07;100.00;99343.69;5062230;28;20053;-95
2024/02/17 05:22:51;;;;;;;14.70;7.03;;;;;;;4.90;100.00;99299.69;5050656;28;20402;-94
2024/02/17 05:25:22;;;;;;;12.20;6.47;;;;;;;5.58;100.00;99415.97;5055935;28;20049;-94
2024/02/17 05:27:48;;;;;;;10.85;5.75;;;;;;;4.98;100.00;99326.06;5054528;28;20079;-95
2024/02/17 05:30:18;;;;;;;14.30;6.82;;;;;;;5.72;100.00;99445.91;5058910;28;20045;-95
2024/02/17 05:32:50;;;;;;;11.32;6.50;;;;;;;5.84;100.00;99479.38;5059774;28;20045;-95
2024/02/17 05:35:20;;;;;;;12.57;6.35;;;;;;;4.48;94.00;99290.69;5049065;28;20132;-96
2024/02/17 05:37:46;;;;;;;12.85;5.80;;;;;;;5.47;93.22;99439.66;5047646;28;20025;-95
2024/02/17 05:40:13;;;;;;;10.57;6.05;;;;;;;5.81;91.77;99483.75;5052496;28;20044;-95
2024/02/17 05:42:43;;;;;;;12.63;6.72;;;;;;;4.86;95.17;99302.31;5045429;28;20037;-94
2024/02/17 05:45:10;;;;;;;11.98;6.65;;;;;;;4.86;93.53;99291.78;5032934;28;20094;-94
2024/02/17 05:47:39;;;;;;;14.70;6.68;;;;;;;5.86;92.88;99451.25;5048059;28;20049;-95
2024/02/17 05:50:10;;;;;;;10.85;5.18;;;;;;;5.68;89.87;99444.16;5039979;28;20041;-94
2024/02/17 05:52:41;;;;;;;10.93;6.35;;;;;;;5.37;88.46;99373.69;5028052;28;20041;-95
2024/02/17 05:55:12;;;;;;;16.42;7.07;;;;;;;6.03;92.74;99490.03;5019881;28;20041;-96
2024/02/17 05:57:40;;;;;;;14.88;7.15;;;;;;;5.11;93.79;99304.16;5032099;28;20041;-96
2024/02/17 06:00:10;;;;;;;19.55;8.15;;;;;;;5.86;94.71;99429.25;5049176;28;20049;-94
2024/02/17 06:02:36;;;;;;;14.05;5.80;;;;;;;4.79;89.67;99311.03;5053093;28;20374;-95
2024/02/17 06:05:07;;;;;;;14.55;7.07;;;;;;;5.64;91.25;99499.53;5054515;28;20032;-94
2024/02/17 06:07:34;;;;;;;13.93;6.43;;;;;;;5.27;92.30;99404.41;5056793;28;20064;-95
2024/02/17 06:10:02;;;;;;;14.70;7.28;;;;;;;4.86;95.74;99332.19;5039884;28;20037;-94
2024/02/17 06:12:32;;;;;;;14.82;6.82;;;;;;;5.73;97.43;99465.28;5035168;28;20052;-95
2024/02/17 06:15:00;;;;;;;14.55;7.05;;;;;;;5.04;97.63;99344.56;5053818;28;20113;-94
2024/02/17 06:17:33;;;;;;;16.92;7.05;;;;;;;5.00;97.18;99328.72;5042978;28;20084;-93
2024/02/17 06:23:57;;;;;;;15.90;6.47;;;;;;;6.27;95.79;99531.47;5138155;27;20381;-94
2024/02/17 06:26:29;;;;;;;16.40;7.57;;;;;;;5.70;95.79;99439.75;5104664;28;20083;-95
2024/02/17 06:28:56;;;;;;;19.08;8.38;;;;;;;6.13;96.41;99499.72;5104753;28;20523;-93
2024/02/17 06:31:23;;;;;;;16.30;7.68;;;;;;;6.35;96.75;99535.91;5106361;28;20044;-93
2024/02/17 06:33:53;;;;;;;16.38;8.27;;;;;;;5.21;96.77;99357.81;5107645;28;20052;-95
2024/02/17 06:36:21;;;;;;;18.17;7.97;;;;;;;6.37;97.81;99557.91;5107710;28;20040;-94
2024/02/17 06:38:51;;;;;;;21.42;8.85;;;;;;;5.53;96.92;99397.50;5108065;28;20039;-94
2024/02/17 06:41:31;;;;;;;22.85;9.20;;;;;;;6.14;97.49;99505.03;5116946;28;20073;-95
2024/02/17 06:44:05;;;;;;;16.85;8.20;;;;;;;5.37;97.75;99379.84;5128494;28;20075;-95
2024/02/17 06:46:34;;;;;;;14.43;6.78;;;;;;;5.51;96.97;99383.41;5128246;28;20051;-94
2024/02/17 06:49:01;;;;;;;16.13;7.45;;;;;;;6.08;95.08;99467.16;5129002;28;20544;-96
2024/02/17 06:51:34;;;;;;;18.00;7.65;;;;;;;5.94;92.73;99445.97;5127027;28;20146;-93
2024/02/17 06:54:14;;;;;;;13.27;7.10;;;;;;;5.54;92.70;99362.31;5120665;28;20392;-94
2024/02/17 06:56:50;;;;;;;14.60;7.30;;;;;;;6.77;92.42;99557.97;5113865;28;20055;-94
2024/02/17 06:59:25;;;;;;;15.25;7.60;;;;;;;6.93;91.84;99560.63;5106599;28;20086;-95
2024/02/17 07:01:56;;;;;;;16.83;7.75;;;;;;;5.91;92.53;99382.63;5107248;28;20073;-94
2024/02/17 07:04:25;;;;;;;12.98;6.93;;;;;;;6.07;92.05;99395.00;5106746;28;20052;-94
2024/02/17 07:06:51;;;;;;;14.43;7.43;;;;;;;6.15;90.96;99384.44;5096712;28;20051;-96
2024/02/17 07:09:20;;;;;;;20.98;8.50;;;;;;;6.75;91.16;99493.66;5102769;28;20044;-96
2024/02/17 07:11:51;;;;;;;19.67;9.43;;;;;;;6.15;89.01;99429.31;5103878;28;20104;-94
2024/02/17 07:14:20;;;;;;;12.60;6.05;;;;;;;6.28;86.99;99417.88;5100737;28;20036;-94
2024/02/17 07:16:47;;;;;;;22.98;10.18;;;;;;;7.23;87.53;99580.91;5081556;28;20048;-96
2024/02/17 07:19:15;;;;;;;16.35;7.95;;;;;;;6.42;88.26;99417.00;5102707;28;20108;-95
2024/02/17 07:21:51;;;;;;;13.95;8.80;;;;;;;7.37;88.44;99572.94;5108575;28;20465;-94
2024/02/17 07:27:49;;;;;;;16.38;6.75;;;;;;;7.55;87.73;99588.81;5103425;28;20513;-95
2024/02/17 07:30:34;;;;;;;14.13;6.30;;;;;;;6.61;86.67;99429.34;5109976;28;20044;-95
2024/02/17 07:33:06;;;;;;;14.82;6.97;;;;;;;7.72;85.64;99595.81;5109904;28;20044;-95
2024/02/17 07:35:41;;;;;;;11.18;6.38;;;;;;;6.86;85.07;99437.25;5115886;28;20048;-95
2024/02/17 07:38:45;;;;;;;;;;;;;;;;;;;;;
2024/02/17 07:41:37;;;;;;;13.23;5.80;;;;;;;7.93;83.98;99616.06;5056340;28;20056;-96
2024/02/17 07:44:30;;;;;;;13.68;5.53;;;;;;;8.03;84.00;99609.88;5033350;28;20215;-95
2024/02/17 07:46:57;;;;;;;10.90;6.00;;;;;;;7.15;83.79;99458.34;5011499;28;20125;-96
2024/02/17 07:49:26;;;;;;;13.32;5.60;;;;;;;7.97;83.21;99594.88;5012208;28;20056;-95
2024/02/17 07:51:58;;;;;;;11.05;5.78;;;;;;;7.59;82.17;99503.22;5005344;28;20042;-94
2024/02/17 07:54:25;;;;;;;8.35;5.45;;;;;;;8.19;81.68;99581.53;5009863;28;20081;-95
2024/02/17 07:56:52;;;;;;;7.80;5.03;;;;;;;8.66;78.23;99622.00;5012004;28;20045;-95
2024/02/17 07:59:18;;;;;;;8.68;4.78;;;;;;;8.51;75.39;99585.84;5010461;28;20042;-95
2024/02/17 08:01:49;;;;;;;12.02;5.40;;;;;;;8.00;76.28;99464.19;5009593;28;20497;-96
2024/02/17 08:04:18;;;;;;;12.10;6.65;;;;;;;9.09;76.52;99625.25;5025479;28;20077;-94
2024/02/17 08:06:47;;;;;;;14.32;6.22;;;;;;;8.35;76.24;99463.09;4989805;28;20047;-95
2024/02/17 08:09:19;;;;;;;13.35;6.88;;;;;;;8.81;75.97;99519.34;5004339;28;20050;-94
2024/02/17 08:11:49;;;;;;;13.27;6.07;;;;;;;9.56;76.26;99610.69;4975235;28;20049;-94
2024/02/17 08:14:18;;;;;;;14.82;7.68;;;;;;;9.70;76.09;99620.31;4973858;28;20046;-95
2024/02/17 08:16:47;;;;;;;16.83;6.63;;;;;;;9.74;75.56;99617.59;5006033;28;20070;-94
2024/02/17 08:19:16;;;;;;;13.15;6.93;;;;;;;9.05;74.16;99473.16;5012597;28;20040;-94
2024/02/17 08:21:51;;;;;;;10.05;5.82;;;;;;;9.20;69.23;99456.22;4973888;28;20045;-94
2024/02/17 08:24:23;;;;;;;12.57;6.15;;;;;;;9.42;69.52;99506.41;4988942;28;20059;-94
2024/02/17 08:26:56;;;;;;;14.35;6.13;;;;;;;9.79;69.92;99577.72;5047991;28;20072;-94
2024/02/17 08:29:29;;;;;;;14.80;5.55;;;;;;;9.50;70.58;99538.16;5052374;28;20044;-94
2024/02/17 08:32:31;;;;;;;12.18;6.30;;;;;;;9.45;70.17;99532.91;5047740;28;20048;-95
2024/02/17 08:35:03;;;;;;;9.45;5.95;;;;;;;9.94;70.44;99638.66;5033076;28;20049;-94
2024/02/17 08:37:34;;;;;;;10.73;5.25;;;;;;;8.92;70.96;99479.47;5032228;28;20080;-96
2024/02/17 08:40:06;;;;;;;12.27;6.13;;;;;;;8.92;71.56;99489.22;5031247;28;20042;-94
2024/02/17 08:42:39;;;;;;;10.48;5.47;;;;;;;9.54;71.89;99609.84;5031757;28;20046;-93
2024/02/17 08:45:16;;;;;;;12.15;5.72;;;;;;;8.50;72.19;99457.75;5030351;28;20076;-96
2024/02/17 08:47:51;;;;;;;14.52;6.00;;;;;;;9.58;72.94;99658.47;5032436;28;20045;-96
2024/02/17 08:50:21;;;;;;;12.60;5.93;;;;;;;8.89;72.95;99552.88;5030917;28;20049;-96
2024/02/17 08:52:55;;;;;;;11.70;6.82;;;;;;;8.73;72.71;99486.69;5031756;28;20473;-95
2024/02/17 08:55:27;;;;;;;14.88;6.32;;;;;;;9.44;72.22;99610.81;5031527;28;20045;-94
2024/02/17 08:57:57;;;;;;;10.52;5.68;;;;;;;9.25;72.02;99555.22;5031043;28;20054;-95
2024/02/17 09:00:24;;;;;;;;;;;;;;;10.00;71.84;99662.50;5031548;28;20121;-94
2024/02/17 09:02:58;;;;;;;9.60;4.80;;;;;;;10.24;70.18;99655.16;5031909;28;19921;-95
2024/02/17 09:05:25;;;;;;;10.80;5.28;;;;;;;10.51;70.25;99659.28;5048047;28;20060;-95
2024/02/17 09:08:01;;;;;;;12.45;5.30;;;;;;;10.33;69.88;99590.41;5031800;28;20076;-95
2024/02/17 09:10:28;;;;;;;9.82;6.25;;;;;;;10.94;69.87;99663.16;5032591;28;20497;-94
2024/02/17 09:13:29;;;;;;;10.60;5.78;;;;;;;10.13;68.35;99487.84;5031581;28;20052;-95
2024/02/17 09:16:04;;;;;;;13.00;7.07;;;;;;;10.37;67.57;99499.06;5035504;28;20040;-95
2024/02/17 09:18:32;;;;;;;9.75;5.30;;;;;;;10.57;66.37;99504.09;5050499;28;20074;-95
2024/02/17 09:20:59;;;;;;;10.50;6.63;;;;;;;10.64;66.17;99501.28;5050963;28;20036;-96
2024/02/17 09:23:29;;;;;;;11.02;4.90;;;;;;;11.20;65.35;99562.47;5050974;28;20560;-94
2024/02/17 09:25:55;;;;;;;10.55;5.85;;;;;;;11.69;64.19;99630.00;5050661;28;20045;-95
2024/02/17 09:28:30;;;;;;;12.43;6.00;;;;;;;11.43;63.65;99564.75;5049379;28;20049;-95
2024/02/17 09:30:56;;;;;;;10.82;6.13;;;;;;;11.87;63.14;99631.44;5049950;28;20049;-94
2024/02/17 09:33:28;;;;;;;13.57;6.35;;;;;;;11.84;62.80;99615.50;5050465;28;20048;-95
2024/02/17 09:36:04;;;;;;;11.27;6.13;;;;;;;11.36;62.08;99528.47;5049166;28;20103;-96
2024/02/17 09:38:34;;;;;;;11.48;6.20;;;;;;;11.69;61.89;99560.75;5050796;28;20045;-94
2024/02/17 09:41:05;;;;;;;12.05;6.28;;;;;;;11.49;61.73;99513.13;5050985;28;20049;-96
2024/02/17 09:43:32;;;;;;;13.57;6.32;;;;;;;12.29;61.42;99640.44;5051004;28;20044;-95
2024/02/17 09:46:02;;;;;;;18.48;7.07;;;;;;;12.66;61.88;99665.47;5050066;28;20071;-95
2024/02/17 09:48:32;;;;;;;13.70;7.40;;;;;;;12.19;61.35;99571.31;5050478;28;20068;-95
2024/02/17 09:51:07;;;;;;;13.68;7.00;;;;;;;12.79;60.10;99684.78;5049972;28;20049;-95
2024/02/17 09:53:40;;;;;;;9.75;6.75;;;;;;;11.94;59.64;99518.50;5050331;28;20569;-95
2024/02/17 09:56:09;;;;;;;13.13;6.68;;;;;;;12.82;60.36;99677.59;5049620;28;20452;-93
2024/02/17 09:58:37;;;;;;;13.57;6.95;;;;;;;12.16;60.79;99580.25;5049770;28;20401;-95
2024/02/17 10:01:07;;;;;;;11.80;7.00;;;;;;;11.96;59.93;99519.34;5049929;28;20045;-96
2024/02/17 10:03:39;;;;;;;12.38;7.63;;;;;;;13.08;60.63;99677.00;5047725;28;20049;-95
2024/02/17 10:06:15;;;;;;;14.50;7.60;;;;;;;12.13;60.39;99505.69;5049577;28;20045;-95
2024/02/17 10:08:45;;;;;;;14.00;7.53;;;;;;;12.89;59.56;99619.59;5049537;28;20040;-94
2024/02/17 10:11:12;;;;;;;15.57;8.65;;;;;;;12.35;59.30;99507.88;5050867;28;20135;-96
2024/02/17 10:13:43;;;;;;;13.57;7.68;;;;;;;13.58;59.56;99683.91;5049461;28;20494;-96
2024/02/17 10:16:18;;;;;;;14.77;8.15;;;;;;;13.73;59.90;99680.84;5050020;28;20452;-94
2024/02/17 10:18:45;;;;;;;18.38;10.88;;;;;;;13.65;59.21;99675.69;5049629;28;20049;-96
2024/02/17 10:21:14;;;;;;;17.50;10.20;;;;;;;12.99;60.31;99538.41;5049764;28;20041;-95
2024/02/17 10:23:46;;;;;;;17.65;10.27;;;;;;;13.63;60.12;99677.50;5049403;28;20103;-95
2024/02/17 10:26:15;;;;;;;17.88;9.65;;;;;;;12.95;60.29;99515.34;5052203;28;20382;-94
2024/02/17 10:28:59;;;;;;;19.00;9.20;;;;;;;13.89;60.10;99642.09;5069924;28;20048;-96
2024/02/17 10:31:29;;;;;;;19.75;8.95;;;;;;;13.29;59.08;99528.75;5068704;28;20055;-96
2024/02/17 10:34:02;;;;;;;16.15;9.05;;;;;;;14.16;59.01;99682.38;5058159;28;20051;-96
2024/02/17 10:36:36;;;;;;;18.08;9.60;;;;;;;14.17;58.67;99668.09;5061060;28;20040;-96
2024/02/17 10:39:04;;;;;;;14.75;8.25;;;;;;;13.31;58.22;99508.19;5056088;28;20037;-95
2024/02/17 10:41:35;;;;;;;17.23;8.57;;;;;;;14.16;58.26;99635.13;5065101;28;20058;-95
2024/02/17 10:44:15;;;;;;;12.43;7.93;;;;;;;13.38;55.86;99508.03;5069794;28;20075;-95
2024/02/17 10:46:49;;;;;;;13.77;7.32;;;;;;;13.51;56.75;99507.69;5069508;28;20024;-96
2024/02/17 10:49:26;;;;;;;16.58;8.13;;;;;;;14.39;56.17;99658.53;5068692;28;20048;-95
2024/02/17 10:52:00;;;;;;;11.43;7.05;;;;;;;14.07;56.34;99592.56;5069328;28;20044;-94
2024/02/17 10:54:32;;;;;;;11.55;6.68;;;;;;;14.47;56.37;99662.81;5049854;28;20049;-96
2024/02/17 10:57:03;;;;;;;11.57;6.30;;;;;;;14.16;56.36;99621.75;5049668;28;20116;-94
2024/02/17 10:59:32;;;;;;;12.88;7.20;;;;;;;14.25;56.36;99647.38;5048285;28;20064;-96
2024/02/17 11:02:03;;;;;;;11.10;6.95;;;;;;;14.33;55.27;99647.13;5048563;28;20140;-95
2024/02/17 11:04:36;;;;;;;12.90;7.38;;;;;;;14.15;57.14;99645.84;5046860;28;20037;-96
2024/02/17 11:07:05;;;;;;;14.23;7.63;;;;;;;13.33;56.85;99509.03;5049026;28;20095;-96
2024/02/17 11:09:35;;;;;;;12.32;7.32;;;;;;;14.25;57.52;99643.78;5051917;28;20069;-96
2024/02/17 11:12:32;;;;;;;13.95;8.57;;;;;;;14.28;57.48;99635.69;5054282;28;20045;-95
2024/02/17 11:15:09;;;;;;;13.23;7.63;;;;;;;14.04;57.38;99591.78;5053737;28;20041;-94
2024/02/17 11:17:38;;;;;;;14.13;7.63;;;;;;;13.58;57.60;99537.78;5052311;28;20044;-96
2024/02/17 11:20:13;;;;;;;12.98;7.55;;;;;;;13.32;57.97;99477.91;5052870;28;20044;-96
2024/02/17 11:22:44;;;;;;;12.60;7.60;;;;;;;13.63;59.59;99514.47;5062012;28;20048;-96
2024/02/17 11:25:12;;;;;;;11.32;7.10;;;;;;;13.54;57.87;99490.69;5072074;28;20048;-96
2024/02/17 11:27:43;;;;;;;14.30;7.85;;;;;;;13.67;57.99;99508.13;5073450;28;20095;-95
2024/02/17 11:30:13;;;;;;;14.43;7.95;;;;;;;13.55;57.77;99466.59;5074078;28;20028;-95
2024/02/17 11:32:40;;;;;;;12.98;7.70;;;;;;;13.61;57.80;99467.34;5073001;28;20045;-94
2024/02/17 11:35:07;;;;;;;20.23;9.45;;;;;;;13.69;58.20;99474.22;5072658;28;20044;-95
2024/02/17 11:37:45;;;;;;;13.52;8.27;;;;;;;13.79;58.39;99463.25;5073780;28;20068;-95
2024/02/17 11:40:22;;;;;;;13.00;7.85;;;;;;;13.82;58.17;99463.19;5073640;28;20075;-96
2024/02/17 11:42:54;;;;;;;16.98;8.75;;;;;;;14.77;57.90;99610.19;5072287;28;20046;-95
2024/02/17 11:45:22;;;;;;;13.10;7.20;;;;;;;14.81;58.97;99611.81;5073694;28;20071;-96
2024/02/17 11:47:56;;;;;;;14.70;8.68;;;;;;;14.85;59.09;99610.81;5073465;28;20494;-96
2024/02/17 11:50:33;;;;;;;16.13;8.63;;;;;;;14.83;56.76;99611.78;5071856;28;20048;-95
2024/02/17 11:53:09;;;;;;;15.30;8.75;;;;;;;14.02;58.39;99454.56;5073073;28;20071;-96
2024/02/17 11:55:41;;;;;;;13.10;7.75;;;;;;;14.48;58.31;99523.59;5053898;28;20052;-96
2024/02/17 11:58:10;;;;;;;16.08;8.05;;;;;;;14.72;58.06;99548.72;5046246;28;20494;-95
2024/02/17 12:00:38;;;;;;;15.80;9.32;;;;;;;15.14;57.98;99601.88;5044514;28;20112;-96
2024/02/17 12:03:08;;;;;;;16.05;8.98;;;;;;;15.05;58.36;99578.06;5046165;28;20052;-95
2024/02/17 12:05:34;;;;;;;16.05;8.43;;;;;;;15.18;58.35;99578.53;5046782;28;20065;-96
2024/02/17 12:08:01;;;;;;;17.65;9.18;;;;;;;14.68;58.39;99490.00;5049060;28;20098;-95
2024/02/17 12:10:42;;;;;;;14.02;8.75;;;;;;;15.34;58.85;99593.16;5050086;28;20060;-94
2024/02/17 12:13:12;;;;;;;15.73;9.30;;;;;;;15.36;58.52;99598.50;5055109;28;20047;-96
2024/02/17 12:15:38;;;;;;;15.48;9.02;;;;;;;14.26;59.19;99404.78;5045026;28;20052;-93
2024/02/17 12:18:06;;;;;;;20.77;11.07;;;;;;;14.85;59.49;99489.44;5045920;28;20045;-95
2024/02/17 12:20:35;;;;;;;18.35;9.95;;;;;;;15.44;59.95;99563.38;5050600;28;20497;-96
2024/02/17 12:23:02;;;;;;;17.27;10.77;;;;;;;14.81;59.79;99450.31;5059127;28;20045;-95
2024/02/17 12:25:32;;;;;;;19.70;10.65;;;;;;;14.86;59.03;99443.88;5065697;28;20496;-94
2024/02/17 12:28:01;;;;;;;22.73;12.13;;;;;;;15.77;60.32;99583.69;5064417;28;20029;-96